📊 Raw Sensor Data

Showing records 38951 to 38975 of 84,938 total

ID Distance (ft) Battery V Battery A Int Temp (°F) Int Humid (%) Ext Temp (°F) Solar V RSSI SNR Time Stamp
46000 15.6 4.04 0 106 43 100 5.10 -71 8 07/11/2025 01:45 PM
45999 15.6 3.99 5 105 43 97 5.10 -71 8 07/11/2025 01:30 PM
45998 15.6 3.99 5 103 43 98 5.20 -70 8 07/11/2025 01:15 PM
45997 15.6 3.99 0 101 43 97 5.10 -72 7 07/11/2025 01:00 PM
45996 15.6 3.99 0 100 43 96 5.20 -71 7 07/11/2025 12:45 PM
45995 15.6 3.99 5 98 43 96 5.10 -71 8 07/11/2025 12:30 PM
45994 15.6 3.99 5 96 44 96 5.10 -71 8 07/11/2025 12:15 PM
45993 15.6 3.99 5 95 44 97 5.20 -71 8 07/11/2025 12:00 PM
45992 15.6 3.99 5 94 44 95 5.10 -71 7 07/11/2025 11:45 AM
45991 15.6 4.05 0 92 44 96 5.10 -70 8 07/11/2025 11:30 AM
45990 15.6 3.98 0 91 43 95 5.10 -71 7 07/11/2025 11:15 AM
45989 15.7 3.98 0 90 43 94 5.10 -72 7 07/11/2025 11:00 AM
45988 15.6 3.98 5 89 43 88 5.10 -71 7 07/11/2025 10:45 AM
45987 15.7 3.98 6 87 43 90 5.10 -71 7 07/11/2025 10:30 AM
45986 15.6 4.02 0 86 43 89 5.10 -73 8 07/11/2025 10:15 AM
45985 15.6 3.98 0 85 43 88 5.10 -73 7 07/11/2025 10:00 AM
45984 15.6 3.98 0 84 43 87 5.10 -71 8 07/11/2025 09:45 AM
45983 15.6 4.02 6 83 43 88 5.10 -72 8 07/11/2025 09:30 AM
45982 15.6 4.11 6 81 43 87 5.10 -71 7 07/11/2025 09:15 AM
45981 15.6 3.98 6 80 44 84 5.10 -72 7 07/11/2025 09:00 AM
45980 15.6 3.98 0 77 44 82 5.10 -71 8 07/11/2025 08:45 AM
45979 15.6 3.98 6 76 44 77 5.10 -71 8 07/11/2025 08:30 AM
45978 15.6 3.98 0 75 43 77 5.10 -71 8 07/11/2025 08:15 AM
45977 15.6 4.18 67 73 43 78 4.60 -70 8 07/11/2025 08:00 AM
45976 15.5 4.05 58 72 42 77 4.50 -71 8 07/11/2025 07:45 AM